createdAt,value
2017-07-21T00:00:33.446Z,21.00
2017-07-21T00:02:59.404Z,21.00
2017-07-21T00:05:25.405Z,21.00
2017-07-21T00:07:51.325Z,21.10
2017-07-21T00:10:18.004Z,21.10
2017-07-21T00:12:54.564Z,21.00
2017-07-21T00:15:20.488Z,21.10
2017-07-21T00:17:47.153Z,21.30
2017-07-21T00:20:13.082Z,21.30
2017-07-21T00:22:38.990Z,21.20
2017-07-21T00:25:04.927Z,21.30
2017-07-21T00:27:30.903Z,21.10
2017-07-21T00:29:56.829Z,21.10
2017-07-21T00:32:22.758Z,21.20
2017-07-21T00:34:48.741Z,21.10
2017-07-21T00:37:14.719Z,21.20
2017-07-21T00:39:40.664Z,21.20
2017-07-21T00:42:06.663Z,21.10
2017-07-21T00:44:32.667Z,20.90
2017-07-21T00:46:58.599Z,20.90
2017-07-21T00:49:24.529Z,20.90
2017-07-21T00:51:50.466Z,20.90
2017-07-21T00:54:16.394Z,20.90
2017-07-21T00:56:42.349Z,20.90
2017-07-21T00:59:08.269Z,21.00
2017-07-21T01:01:34.252Z,20.90
2017-07-21T01:04:00.198Z,20.80
2017-07-21T01:06:26.170Z,20.80
2017-07-21T01:08:52.113Z,20.90
2017-07-21T01:11:18.053Z,21.00
2017-07-21T01:13:44.042Z,21.10
2017-07-21T01:16:09.981Z,21.20
2017-07-21T01:18:36.652Z,21.30
2017-07-21T01:21:02.608Z,21.30
2017-07-21T01:23:28.537Z,21.20
2017-07-21T01:25:54.466Z,21.30
2017-07-21T01:28:20.380Z,21.40
2017-07-21T01:30:46.328Z,21.30
2017-07-21T01:33:12.264Z,21.20
2017-07-21T01:35:38.231Z,21.30
2017-07-21T01:38:04.895Z,21.00
2017-07-21T01:40:30.835Z,21.00
2017-07-21T01:42:56.769Z,21.10
2017-07-21T01:45:22.722Z,20.90
2017-07-21T01:47:48.645Z,20.80
2017-07-21T01:50:14.578Z,20.80
2017-07-21T01:52:40.510Z,20.50
2017-07-21T01:55:06.437Z,20.40
2017-07-21T01:57:32.382Z,20.30
2017-07-21T01:59:59.049Z,20.50
2017-07-21T02:02:24.981Z,20.40
2017-07-21T02:04:50.899Z,20.40
2017-07-21T02:07:16.830Z,20.50
2017-07-21T02:09:43.505Z,20.60
2017-07-21T02:12:09.474Z,20.60
2017-07-21T02:14:35.410Z,20.60
2017-07-21T02:17:02.101Z,20.70
2017-07-21T02:19:28.047Z,20.70
2017-07-21T02:21:54.083Z,20.70
2017-07-21T02:24:20.013Z,20.70
2017-07-21T02:26:46.072Z,20.70
2017-07-21T02:29:12.763Z,20.60
2017-07-21T02:31:38.688Z,20.60
2017-07-21T02:34:04.621Z,20.60
2017-07-21T02:36:30.625Z,20.50
2017-07-21T02:38:56.590Z,20.50
2017-07-21T02:41:22.525Z,20.50
2017-07-21T02:43:48.474Z,20.50
2017-07-21T02:46:15.146Z,20.60
2017-07-21T02:48:41.114Z,20.60
2017-07-21T02:51:07.059Z,20.60
2017-07-21T02:53:32.989Z,20.60
2017-07-21T02:55:58.905Z,20.60
2017-07-21T02:58:24.850Z,20.60
2017-07-21T03:00:51.730Z,20.70
2017-07-21T03:03:18.085Z,20.70
2017-07-21T03:05:44.015Z,20.70
2017-07-21T03:08:10.002Z,20.80
2017-07-21T03:10:36.703Z,20.80
2017-07-21T03:13:02.670Z,20.80
2017-07-21T03:15:28.602Z,20.80
2017-07-21T03:17:55.261Z,20.40
2017-07-21T03:20:21.210Z,20.40
2017-07-21T03:22:59.737Z,20.50
2017-07-21T03:25:25.686Z,20.60
2017-07-21T03:27:51.649Z,20.60
2017-07-21T03:30:18.315Z,20.70
2017-07-21T03:32:44.243Z,20.70
2017-07-21T03:35:10.182Z,20.70
2017-07-21T03:37:36.110Z,20.70
2017-07-21T03:40:02.098Z,20.70
2017-07-21T03:42:39.993Z,20.70
2017-07-21T03:45:06.666Z,20.70
2017-07-21T03:47:32.595Z,20.70
2017-07-21T03:49:58.537Z,20.60
2017-07-21T03:52:24.486Z,20.60
2017-07-21T03:54:50.422Z,20.60
2017-07-21T03:57:16.373Z,20.50
2017-07-21T03:59:43.092Z,20.40
2017-07-21T04:02:09.064Z,20.40
2017-07-21T04:04:35.043Z,20.40
2017-07-21T04:07:00.974Z,20.40
2017-07-21T04:09:26.979Z,20.40
2017-07-21T04:11:52.934Z,20.40
2017-07-21T04:14:18.891Z,20.30
2017-07-21T04:16:45.563Z,20.30
2017-07-21T04:19:11.490Z,20.30
2017-07-21T04:21:37.451Z,20.20
2017-07-21T04:24:03.389Z,20.10
2017-07-21T04:26:29.324Z,20.00
2017-07-21T04:28:55.262Z,20.10
2017-07-21T04:31:21.953Z,20.00
2017-07-21T04:33:47.891Z,20.00
2017-07-21T04:36:13.864Z,20.10
2017-07-21T04:38:39.774Z,19.80
2017-07-21T04:41:05.763Z,19.90
2017-07-21T04:43:31.709Z,20.00
2017-07-21T04:45:57.647Z,19.90
2017-07-21T04:48:23.549Z,20.00
2017-07-21T04:50:49.477Z,20.10
2017-07-21T04:53:15.412Z,20.10
2017-07-21T04:55:41.338Z,20.20
2017-07-21T04:58:07.289Z,20.20
2017-07-21T05:00:33.221Z,20.10
2017-07-21T05:02:59.748Z,20.10
2017-07-21T05:05:25.717Z,20.20
2017-07-21T05:07:52.390Z,20.40
2017-07-21T05:10:18.318Z,20.40
2017-07-21T05:12:44.280Z,20.50
2017-07-21T05:15:10.183Z,20.60
2017-07-21T05:17:36.119Z,20.70
2017-07-21T05:20:02.061Z,20.70
2017-07-21T05:22:27.989Z,20.80
2017-07-21T05:24:53.897Z,20.70
2017-07-21T05:27:19.824Z,20.50
2017-07-21T05:29:45.758Z,20.60
2017-07-21T05:32:11.724Z,20.70
2017-07-21T05:34:38.404Z,21.00
2017-07-21T05:37:04.346Z,20.90
2017-07-21T05:39:30.296Z,21.00
2017-07-21T05:41:56.226Z,21.10
2017-07-21T05:44:22.153Z,21.20
2017-07-21T05:46:48.089Z,21.00
2017-07-21T05:49:14.030Z,20.90
2017-07-21T05:51:39.958Z,21.00
2017-07-21T05:54:06.778Z,21.30
2017-07-21T05:56:32.741Z,21.20
2017-07-21T05:58:58.673Z,21.30
2017-07-21T06:01:24.611Z,21.30
2017-07-21T06:03:50.552Z,21.40
2017-07-21T06:06:16.461Z,21.30
2017-07-21T06:08:42.440Z,21.20
2017-07-21T06:11:08.457Z,21.40
2017-07-21T06:13:34.407Z,21.50
2017-07-21T06:16:00.343Z,21.50
2017-07-21T06:18:26.313Z,21.70
2017-07-21T06:20:52.257Z,21.90
2017-07-21T06:23:18.219Z,21.80
2017-07-21T06:25:47.744Z,22.00
2017-07-21T06:28:14.423Z,22.20
2017-07-21T06:30:40.381Z,22.20
2017-07-21T06:33:06.350Z,22.30
2017-07-21T06:35:33.026Z,22.30
2017-07-21T06:37:58.946Z,22.30
2017-07-21T06:40:24.873Z,22.40
2017-07-21T06:42:50.798Z,22.00
2017-07-21T06:45:16.758Z,22.00
2017-07-21T06:47:42.702Z,22.20
2017-07-21T06:50:08.628Z,22.40
2017-07-21T06:52:35.601Z,22.70
2017-07-21T06:55:01.565Z,22.80
2017-07-21T06:57:27.494Z,23.00
2017-07-21T06:59:54.585Z,23.20
2017-07-21T07:02:20.517Z,23.20
2017-07-21T07:04:46.435Z,23.00
2017-07-21T07:07:12.379Z,22.80
2017-07-21T07:09:38.333Z,22.80
2017-07-21T07:12:04.275Z,23.20
2017-07-21T07:14:31.298Z,22.80
2017-07-21T07:16:57.989Z,23.10
2017-07-21T07:19:23.923Z,23.10
2017-07-21T07:21:49.857Z,23.40
2017-07-21T07:24:16.861Z,23.60
2017-07-21T07:26:43.528Z,23.90
2017-07-21T07:29:09.813Z,23.90
2017-07-21T07:31:35.826Z,23.70
2017-07-21T07:34:01.838Z,23.90
2017-07-21T07:36:27.779Z,24.10
2017-07-21T07:38:53.763Z,24.20
2017-07-21T07:41:19.702Z,24.20
2017-07-21T07:43:45.630Z,24.10
2017-07-21T07:46:11.667Z,23.70
2017-07-21T07:48:39.737Z,23.80
2017-07-21T07:51:05.699Z,24.10
2017-07-21T07:53:33.696Z,24.30
2017-07-21T07:55:59.642Z,24.30
2017-07-21T07:58:27.409Z,23.90
2017-07-21T08:00:54.076Z,24.00
2017-07-21T08:03:20.009Z,23.90
2017-07-21T08:05:45.990Z,24.00
2017-07-21T08:08:11.933Z,24.20
2017-07-21T08:10:38.623Z,24.60
2017-07-21T08:13:04.553Z,24.50
2017-07-21T08:15:30.561Z,24.50
2017-07-21T08:18:03.119Z,24.30
2017-07-21T08:20:29.839Z,24.80
2017-07-21T08:22:55.833Z,24.80
2017-07-21T08:25:21.761Z,24.70
2017-07-21T08:27:47.680Z,25.00
2017-07-21T08:30:13.662Z,25.10
2017-07-21T08:32:39.585Z,25.00
2017-07-21T08:35:09.369Z,25.20
2017-07-21T08:37:41.729Z,25.20
2017-07-21T08:40:13.961Z,25.50
2017-07-21T08:42:40.690Z,25.80
2017-07-21T08:45:06.609Z,25.80
2017-07-21T08:47:32.554Z,25.80
2017-07-21T08:49:59.310Z,25.30
2017-07-21T08:52:25.250Z,25.20
2017-07-21T08:54:54.746Z,25.30
2017-07-21T08:57:21.422Z,25.10
2017-07-21T08:59:48.346Z,25.10
2017-07-21T09:02:14.294Z,25.30
2017-07-21T09:04:40.221Z,25.40
2017-07-21T09:07:06.209Z,25.60
2017-07-21T09:09:32.880Z,26.00
2017-07-21T09:11:58.846Z,26.00
2017-07-21T09:14:24.761Z,26.10
2017-07-21T09:16:50.769Z,26.40
2017-07-21T09:19:16.722Z,26.30
2017-07-21T09:21:42.637Z,26.30
2017-07-21T09:24:09.653Z,26.40
2017-07-21T09:26:36.384Z,25.80
2017-07-21T09:29:02.357Z,25.80
2017-07-21T09:31:28.309Z,25.90
2017-07-21T09:33:55.297Z,26.00
2017-07-21T09:36:21.990Z,26.20
2017-07-21T09:38:47.952Z,26.20
2017-07-21T09:41:13.946Z,26.60
2017-07-21T09:43:39.884Z,27.00
2017-07-21T09:46:05.810Z,27.00
2017-07-21T09:48:31.722Z,27.10
2017-07-21T09:50:57.685Z,27.30
2017-07-21T09:53:23.619Z,27.50
2017-07-21T09:55:49.541Z,27.50
2017-07-21T09:58:15.505Z,27.50
2017-07-21T10:00:50.246Z,27.50
2017-07-21T10:03:16.225Z,27.50
2017-07-21T10:05:42.204Z,27.70
2017-07-21T10:08:08.859Z,27.60
2017-07-21T10:10:34.794Z,27.60
2017-07-21T10:13:00.747Z,28.10
2017-07-21T10:15:26.690Z,28.30
2017-07-21T10:17:52.621Z,28.40
2017-07-21T10:20:28.829Z,28.70
2017-07-21T10:23:03.113Z,29.30
2017-07-21T10:25:33.614Z,29.90
2017-07-21T10:27:59.651Z,29.90
2017-07-21T10:30:32.176Z,29.80
2017-07-21T10:33:10.605Z,30.10
2017-07-21T10:35:43.088Z,30.30
2017-07-21T10:38:11.117Z,30.60
2017-07-21T10:40:37.207Z,31.20
2017-07-21T10:43:07.170Z,31.70
2017-07-21T10:45:54.361Z,31.90
2017-07-21T10:48:22.345Z,31.70
2017-07-21T10:50:53.197Z,31.80
2017-07-21T10:53:40.375Z,31.80
2017-07-21T10:56:26.774Z,31.80
2017-07-21T10:58:52.734Z,31.90
2017-07-21T11:01:20.483Z,32.60
2017-07-21T11:03:48.288Z,32.90
2017-07-21T11:06:27.210Z,32.90
2017-07-21T11:09:03.777Z,32.70
2017-07-21T11:11:40.240Z,32.70
2017-07-21T11:16:59.102Z,32.70
2017-07-21T11:19:39.134Z,32.70
2017-07-21T11:22:12.534Z,32.80
2017-07-21T11:24:56.782Z,33.20
2017-07-21T11:27:36.986Z,33.10
2017-07-21T11:30:05.054Z,33.30
2017-07-21T11:32:44.713Z,33.50
2017-07-21T11:35:21.146Z,33.80
2017-07-21T11:38:08.518Z,34.30
2017-07-21T11:40:36.534Z,34.40
2017-07-21T11:43:09.425Z,34.20
2017-07-21T11:45:41.730Z,34.40
2017-07-21T11:48:20.233Z,34.60
2017-07-21T11:50:46.252Z,34.70
2017-07-21T11:59:09.905Z,34.90
2017-07-21T12:01:56.323Z,34.80
2017-07-21T12:04:32.879Z,34.70
2017-07-21T12:07:09.129Z,34.50
2017-07-21T12:09:44.603Z,35.00
2017-07-21T12:12:18.801Z,35.00
2017-07-21T12:14:52.217Z,35.00
2017-07-21T12:17:26.532Z,34.70
2017-07-21T12:19:59.919Z,34.40
2017-07-21T12:22:27.870Z,34.00
2017-07-21T12:24:53.916Z,33.90
2017-07-21T12:27:23.842Z,33.90
2017-07-21T12:29:53.220Z,34.00
2017-07-21T12:32:27.470Z,34.50
2017-07-21T12:35:10.887Z,34.50
2017-07-21T12:37:58.261Z,35.00
2017-07-21T12:40:31.828Z,35.20
2017-07-21T12:42:59.870Z,34.90
2017-07-21T12:45:37.486Z,34.40
2017-07-21T12:48:03.509Z,34.40
2017-07-21T12:50:40.099Z,34.10
2017-07-21T12:53:13.634Z,34.50
2017-07-21T12:55:39.692Z,35.00
2017-07-21T12:58:14.277Z,35.40
2017-07-21T13:00:40.282Z,35.60
2017-07-21T13:03:32.987Z,35.80
2017-07-21T13:05:59.031Z,36.30
2017-07-21T13:08:39.620Z,36.10
2017-07-21T13:11:12.081Z,36.30
2017-07-21T13:13:48.415Z,35.80
2017-07-21T13:16:17.200Z,35.10
2017-07-21T13:18:49.155Z,34.60
2017-07-21T13:21:15.160Z,34.70
2017-07-21T13:23:45.830Z,34.00
2017-07-21T13:26:12.762Z,33.70
2017-07-21T13:28:38.807Z,33.60
2017-07-21T13:31:31.631Z,34.60
2017-07-21T13:34:09.262Z,34.90
2017-07-21T13:36:38.729Z,34.90
2017-07-21T13:39:04.717Z,35.40
2017-07-21T13:41:45.304Z,35.80
2017-07-21T13:44:12.520Z,36.10
2017-07-21T13:46:41.941Z,36.40
2017-07-21T13:49:07.962Z,36.80
2017-07-21T13:51:41.563Z,37.20
2017-07-21T13:54:15.957Z,37.10
2017-07-21T13:59:35.787Z,36.40
2017-07-21T14:02:01.758Z,36.60
2017-07-21T14:04:53.148Z,37.00
2017-07-21T14:10:13.314Z,37.00
2017-07-21T14:12:50.535Z,36.60
2017-07-21T14:15:16.589Z,36.60
2017-07-21T14:17:55.966Z,37.20
2017-07-21T14:20:26.345Z,37.60
2017-07-21T14:23:19.481Z,37.70
2017-07-21T14:25:52.853Z,37.70
2017-07-21T14:28:29.293Z,38.00
2017-07-21T14:31:00.537Z,38.20
2017-07-21T14:33:31.773Z,37.30
2017-07-21T14:36:02.295Z,36.70
2017-07-21T14:38:41.297Z,36.10
2017-07-21T14:41:10.761Z,35.60
2017-07-21T14:43:48.121Z,35.20
2017-07-21T14:46:18.462Z,34.60
2017-07-21T14:48:56.822Z,34.50
2017-07-21T14:51:22.934Z,34.50
2017-07-21T14:54:05.942Z,34.30
2017-07-21T14:56:45.473Z,34.30
2017-07-21T14:59:11.643Z,34.20
2017-07-21T15:01:37.685Z,33.80
2017-07-21T15:04:04.703Z,33.70
2017-07-21T15:06:31.908Z,33.60
2017-07-21T15:08:57.961Z,33.50
2017-07-21T15:11:25.950Z,33.50
2017-07-21T15:14:12.579Z,33.60
2017-07-21T15:16:40.615Z,33.70
2017-07-21T15:19:06.574Z,33.70
2017-07-21T15:21:36.710Z,33.70
2017-07-21T15:24:13.125Z,33.70
2017-07-21T15:26:59.366Z,33.90
2017-07-21T15:29:28.926Z,34.20
2017-07-21T15:31:58.220Z,34.30
2017-07-21T15:37:21.114Z,34.70
2017-07-21T15:42:58.089Z,34.90
2017-07-21T15:45:39.465Z,35.10
2017-07-21T15:48:11.932Z,35.20
2017-07-21T15:50:59.076Z,35.20
2017-07-21T15:53:27.089Z,35.30
2017-07-21T15:58:50.191Z,35.50
2017-07-21T16:01:22.657Z,35.80
2017-07-21T16:03:59.075Z,35.60
2017-07-21T16:06:42.292Z,35.60
2017-07-21T16:12:02.553Z,35.30
2017-07-21T16:14:28.554Z,35.50
2017-07-21T16:16:58.870Z,35.60
2017-07-21T16:19:32.102Z,35.50
2017-07-21T16:22:04.570Z,35.20
2017-07-21T16:24:30.516Z,34.80
2017-07-21T16:29:49.749Z,34.50
2017-07-21T16:32:15.774Z,34.50
2017-07-21T16:34:43.548Z,34.20
2017-07-21T16:37:09.588Z,34.20
2017-07-21T16:39:36.261Z,34.20
2017-07-21T16:42:16.174Z,34.20
2017-07-21T16:44:42.869Z,34.80
2017-07-21T16:47:12.934Z,34.70
2017-07-21T16:49:46.250Z,35.00
2017-07-21T16:52:29.641Z,34.90
2017-07-21T16:54:55.692Z,34.90
2017-07-21T16:57:22.432Z,35.10
2017-07-21T16:59:53.500Z,35.00
2017-07-21T17:02:20.563Z,35.00
2017-07-21T17:04:46.495Z,35.20
2017-07-21T17:07:13.506Z,35.20
2017-07-21T17:09:41.495Z,35.00
2017-07-21T17:12:12.926Z,34.90
2017-07-21T17:14:39.673Z,34.30
2017-07-21T17:17:05.637Z,34.30
2017-07-21T17:19:43.645Z,34.10
2017-07-21T17:22:11.667Z,33.90
2017-07-21T17:24:37.609Z,33.60
2017-07-21T17:27:05.420Z,33.20
2017-07-21T17:29:31.441Z,33.20
2017-07-21T17:31:59.381Z,33.20
2017-07-21T17:34:36.550Z,32.70
2017-07-21T17:37:07.068Z,32.70
2017-07-21T17:39:40.201Z,32.50
2017-07-21T17:42:09.609Z,32.30
2017-07-21T17:47:29.697Z,31.80
2017-07-21T17:50:18.996Z,31.80
2017-07-21T17:52:58.452Z,31.90
2017-07-21T17:55:29.828Z,31.50
2017-07-21T18:01:09.691Z,31.40
2017-07-21T18:03:45.175Z,31.50
2017-07-21T18:06:18.519Z,31.50
2017-07-21T18:08:54.835Z,31.60
2017-07-21T18:11:26.052Z,31.60
2017-07-21T18:14:00.417Z,31.70
2017-07-21T18:16:34.610Z,31.70
2017-07-21T18:19:11.955Z,31.80
2017-07-21T18:21:37.892Z,31.80
2017-07-21T18:24:15.617Z,31.90
2017-07-21T18:26:41.563Z,31.90
2017-07-21T18:29:14.353Z,31.90
2017-07-21T18:31:50.896Z,31.80
2017-07-21T18:34:17.952Z,31.70
2017-07-21T18:37:05.518Z,31.60
2017-07-21T18:39:42.242Z,31.50
2017-07-21T18:42:18.701Z,31.40
2017-07-21T18:44:46.658Z,31.20
2017-07-21T18:47:18.399Z,30.90
2017-07-21T18:49:44.345Z,30.90
2017-07-21T18:52:11.034Z,30.80
2017-07-21T18:54:36.956Z,30.80
2017-07-21T18:57:03.717Z,30.70
2017-07-21T18:59:29.657Z,30.60
2017-07-21T19:01:55.662Z,30.50
2017-07-21T19:04:21.639Z,30.50
2017-07-21T19:06:59.659Z,30.30
2017-07-21T19:09:26.323Z,30.20
2017-07-21T19:11:56.099Z,30.20
2017-07-21T19:14:26.473Z,30.20
2017-07-21T19:16:55.752Z,30.10
2017-07-21T19:19:26.177Z,30.00
2017-07-21T19:21:52.840Z,29.80
2017-07-21T19:24:19.869Z,29.80
2017-07-21T19:26:50.111Z,29.50
2017-07-21T19:29:16.045Z,29.40
2017-07-21T19:31:41.982Z,29.30
2017-07-21T19:34:10.964Z,29.30
2017-07-21T19:36:44.193Z,29.20
2017-07-21T19:42:10.006Z,28.70
2017-07-21T19:44:56.329Z,28.70
2017-07-21T19:47:44.886Z,28.40
2017-07-21T19:50:10.959Z,28.10
2017-07-21T19:52:41.604Z,28.00
2017-07-21T19:55:14.877Z,28.00
2017-07-21T19:57:44.361Z,27.80
2017-07-21T20:00:24.740Z,27.40
2017-07-21T20:03:12.114Z,27.60
2017-07-21T20:05:50.481Z,27.50
2017-07-21T20:08:23.868Z,27.50
2017-07-21T20:10:56.222Z,27.50
2017-07-21T20:13:24.917Z,27.60
2017-07-21T20:16:09.905Z,27.60
2017-07-21T20:18:39.409Z,27.50
2017-07-21T20:21:08.789Z,27.50
2017-07-21T20:23:53.091Z,27.40
2017-07-21T20:26:25.540Z,27.40
2017-07-21T20:28:55.755Z,27.40
2017-07-21T20:31:21.757Z,27.20
2017-07-21T20:33:47.802Z,27.30
2017-07-21T20:36:31.968Z,27.20
2017-07-21T20:39:08.334Z,27.10
2017-07-21T20:41:37.613Z,27.00
2017-07-21T20:44:04.320Z,26.70
2017-07-21T20:46:30.274Z,26.70
2017-07-21T20:48:58.023Z,26.70
2017-07-21T20:51:24.107Z,26.70
2017-07-21T20:53:50.037Z,26.70
2017-07-21T20:56:16.033Z,26.80
2017-07-21T20:58:48.631Z,26.70
2017-07-21T21:01:19.245Z,26.60
2017-07-21T21:03:51.350Z,26.60
2017-07-21T21:06:17.278Z,26.60
2017-07-21T21:08:44.317Z,26.50
2017-07-21T21:11:17.214Z,26.40
2017-07-21T21:13:56.449Z,26.30
2017-07-21T21:16:27.867Z,26.20
2017-07-21T21:18:55.739Z,26.10
2017-07-21T21:21:41.625Z,26.10
2017-07-21T21:24:12.664Z,26.10
2017-07-21T21:26:44.529Z,26.10
2017-07-21T21:29:18.880Z,26.00
2017-07-21T21:31:53.320Z,26.00
2017-07-21T21:34:29.744Z,26.00
2017-07-21T21:37:01.962Z,26.00
2017-07-21T21:39:41.286Z,26.00
2017-07-21T21:42:31.700Z,26.00
2017-07-21T21:44:57.739Z,25.90
2017-07-21T21:47:23.980Z,25.90
2017-07-21T21:49:53.925Z,25.90
2017-07-21T21:52:23.226Z,25.90
2017-07-21T21:54:51.178Z,25.90
2017-07-21T21:57:22.963Z,26.00
2017-07-21T22:00:03.252Z,26.00
2017-07-21T22:02:29.256Z,26.00
2017-07-21T22:04:55.209Z,26.00
2017-07-21T22:07:21.141Z,26.10
2017-07-21T22:09:47.067Z,26.20
2017-07-21T22:12:13.034Z,25.60
2017-07-21T22:14:39.717Z,25.00
2017-07-21T22:17:05.712Z,25.00
2017-07-21T22:19:32.412Z,25.40
2017-07-21T22:21:58.349Z,25.40
2017-07-21T22:24:24.282Z,25.50
2017-07-21T22:26:50.217Z,24.80
2017-07-21T22:29:16.890Z,23.20
2017-07-21T22:31:42.833Z,23.10
2017-07-21T22:34:08.769Z,22.60
2017-07-21T22:36:34.718Z,22.20
2017-07-21T22:39:00.715Z,22.00
2017-07-21T22:41:26.637Z,21.80
2017-07-21T22:43:52.654Z,21.80
2017-07-21T22:46:19.344Z,21.60
2017-07-21T22:48:45.300Z,21.60
2017-07-21T22:51:11.256Z,21.40
2017-07-21T22:53:37.190Z,21.20
2017-07-21T22:56:05.138Z,21.00
2017-07-21T22:58:31.064Z,20.80
2017-07-21T23:00:57.741Z,20.40
2017-07-21T23:03:23.682Z,20.40
2017-07-21T23:05:49.641Z,20.20
2017-07-21T23:08:15.647Z,20.20
2017-07-21T23:10:41.652Z,20.10
2017-07-21T23:13:07.621Z,20.00
2017-07-21T23:15:33.558Z,19.90
2017-07-21T23:17:59.538Z,20.00
2017-07-21T23:20:25.510Z,20.00
2017-07-21T23:22:51.470Z,19.90
2017-07-21T23:25:18.184Z,19.90
2017-07-21T23:27:44.162Z,19.90
2017-07-21T23:30:10.842Z,19.80
2017-07-21T23:32:36.779Z,19.80
2017-07-21T23:35:02.725Z,19.80
2017-07-21T23:37:28.662Z,19.80
2017-07-21T23:39:54.593Z,19.70
2017-07-21T23:42:21.289Z,19.70
2017-07-21T23:44:47.242Z,19.60
2017-07-21T23:47:13.182Z,19.60
2017-07-21T23:49:39.178Z,19.70
2017-07-21T23:52:05.134Z,19.70
2017-07-21T23:54:31.057Z,19.70
2017-07-21T23:56:57.017Z,19.70
2017-07-21T23:59:23.737Z,19.70
